Time;durP1;ratioP1;P1;durP2;ratioP2;P2;SDS_P1;SDS_P2;PMS_P1;PMS_P2;Temp;Humidity;BMP_temperature;BMP_pressure;BME280_temperature;BME280_humidity;BME280_pressure;Samples;Min_cycle;Max_cycle;Signal;HPM_P1;HPM_P2
2022/12/06 00:01:31;;;;;;;15.45;6.15;;;5.40;99.90;;;;;;5016826;28;20085;-72
2022/12/06 00:03:59;;;;;;;17.10;6.82;;;5.40;99.90;;;;;;5017983;28;20046;-73
2022/12/06 00:06:27;;;;;;;17.33;6.68;;;5.70;99.90;;;;;;5017317;28;20117;-72
2022/12/06 00:08:57;;;;;;;15.65;6.70;;;5.40;99.90;;;;;;5016861;28;20049;-72
2022/12/06 00:11:28;;;;;;;14.90;6.60;;;5.30;99.90;;;;;;4999989;28;20050;-72
2022/12/06 00:13:56;;;;;;;14.45;6.85;;;5.30;99.90;;;;;;5017003;28;20180;-72
2022/12/06 00:16:22;;;;;;;20.80;6.45;;;5.30;99.90;;;;;;5003162;28;20058;-72
2022/12/06 00:18:49;;;;;;;13.15;6.03;;;5.30;99.90;;;;;;5012439;28;20039;-72
2022/12/06 00:21:23;;;;;;;23.50;6.78;;;5.30;99.90;;;;;;4997200;28;20121;-72
2022/12/06 00:23:51;;;;;;;16.33;6.20;;;5.30;99.90;;;;;;4979974;28;20039;-72
2022/12/06 00:26:18;;;;;;;18.65;6.57;;;5.20;99.90;;;;;;5012516;28;20042;-72
2022/12/06 00:28:44;;;;;;;21.42;6.85;;;5.20;99.90;;;;;;4997296;28;20030;-72
2022/12/06 00:31:19;;;;;;;19.45;6.40;;;5.40;99.90;;;;;;4997094;28;20053;-72
2022/12/06 00:33:45;;;;;;;14.73;6.07;;;5.20;99.90;;;;;;4996961;28;20042;-72
2022/12/06 00:36:13;;;;;;;19.52;6.95;;;5.20;99.90;;;;;;5010478;28;20119;-72
2022/12/06 00:38:39;;;;;;;17.45;6.18;;;5.30;99.90;;;;;;5016585;28;20044;-72
2022/12/06 00:41:07;;;;;;;15.30;6.28;;;5.20;99.90;;;;;;5016427;28;20509;-72
2022/12/06 00:43:34;;;;;;;12.80;5.93;;;5.10;99.90;;;;;;5016579;28;20104;-72
2022/12/06 00:46:00;;;;;;;15.70;6.50;;;5.00;99.90;;;;;;4998981;28;20057;-73
2022/12/06 00:48:26;;;;;;;13.90;6.55;;;5.00;99.90;;;;;;5016122;28;20053;-72
2022/12/06 00:50:52;;;;;;;15.73;6.68;;;5.50;99.90;;;;;;5016035;28;20060;-72
2022/12/06 00:53:18;;;;;;;17.60;6.28;;;5.10;99.90;;;;;;5015638;28;20121;-71
2022/12/06 00:55:43;;;;;;;17.70;7.25;;;5.10;99.90;;;;;;4998590;28;20046;-72
2022/12/06 00:58:10;;;;;;;20.40;6.75;;;5.10;99.90;;;;;;5016231;28;20445;-72
2022/12/06 01:00:35;;;;;;;21.05;7.63;;;5.10;99.90;;;;;;5016318;28;20054;-73
2022/12/06 01:03:01;;;;;;;23.13;7.13;;;5.10;99.90;;;;;;5016030;28;20339;-70
2022/12/06 01:05:27;;;;;;;15.52;7.00;;;5.10;99.90;;;;;;5007823;28;20466;-70
2022/12/06 01:07:53;;;;;;;18.73;7.05;;;5.20;99.90;;;;;;4996547;28;20473;-70
2022/12/06 01:10:19;;;;;;;18.88;7.43;;;5.10;99.90;;;;;;4996619;28;20097;-70
2022/12/06 01:12:44;;;;;;;15.15;6.05;;;5.20;99.90;;;;;;4979412;28;20108;-70
2022/12/06 01:15:10;;;;;;;13.25;6.40;;;5.10;99.90;;;;;;4996295;28;20042;-71
2022/12/06 01:17:36;;;;;;;16.60;6.53;;;5.20;99.90;;;;;;4979837;28;20129;-71
2022/12/06 01:20:03;;;;;;;12.68;6.43;;;5.20;99.90;;;;;;4995331;28;20068;-70
2022/12/06 01:22:28;;;;;;;16.90;6.10;;;5.20;99.90;;;;;;4996106;28;20048;-70
2022/12/06 01:25:00;;;;;;;13.63;6.00;;;5.20;99.90;;;;;;4996265;28;20125;-71
2022/12/06 01:27:26;;;;;;;12.23;5.38;;;5.10;99.90;;;;;;4978766;28;20046;-71
2022/12/06 01:29:51;;;;;;;10.90;4.88;;;5.20;99.90;;;;;;4996230;28;20190;-70
2022/12/06 01:32:17;;;;;;;11.93;4.13;;;5.20;99.90;;;;;;4978644;28;20053;-69
2022/12/06 01:34:44;;;;;;;11.48;4.38;;;5.20;99.90;;;;;;5001315;28;20480;-70
2022/12/06 01:37:10;;;;;;;8.85;4.03;;;5.10;99.90;;;;;;5015553;28;20378;-69
2022/12/06 01:39:36;;;;;;;10.82;4.45;;;5.10;99.90;;;;;;5015950;28;20123;-71
2022/12/06 01:42:01;;;;;;;8.45;4.40;;;5.10;99.90;;;;;;4998290;28;20041;-70
2022/12/06 01:44:36;;;;;;;9.48;4.00;;;5.10;99.90;;;;;;5015608;28;20038;-71
2022/12/06 01:47:02;;;;;;;10.95;4.00;;;5.10;99.90;;;;;;5016041;28;20049;-70
2022/12/06 01:49:33;;;;;;;9.75;3.63;;;5.10;99.90;;;;;;5013736;28;20068;-70
2022/12/06 01:52:06;;;;;;;10.02;3.80;;;5.10;99.90;;;;;;4995934;28;20030;-71
2022/12/06 01:54:33;;;;;;;10.18;3.50;;;5.10;99.90;;;;;;4995998;28;20043;-70
2022/12/06 01:57:02;;;;;;;12.35;3.95;;;5.10;99.90;;;;;;4995599;28;20058;-70
2022/12/06 01:59:28;;;;;;;7.53;3.38;;;5.10;99.90;;;;;;4995649;28;20108;-71
2022/12/06 02:01:55;;;;;;;10.07;3.60;;;5.10;99.90;;;;;;4995523;28;20042;-70
2022/12/06 02:04:22;;;;;;;6.32;3.40;;;5.10;99.90;;;;;;4998018;28;20069;-71
2022/12/06 02:06:49;;;;;;;9.43;3.03;;;5.10;99.90;;;;;;5015361;28;20034;-70
2022/12/06 02:09:18;;;;;;;5.65;2.80;;;5.10;99.90;;;;;;5015287;28;20104;-70
2022/12/06 02:11:46;;;;;;;7.65;2.72;;;5.10;99.90;;;;;;4996180;28;20038;-70
2022/12/06 02:14:21;;;;;;;8.00;2.85;;;5.10;99.90;;;;;;5014779;28;20060;-70
2022/12/06 02:17:24;;;;;;;7.60;2.55;;;5.00;99.90;;;;;;5015188;28;20068;-70
2022/12/06 02:20:02;;;;;;;6.80;2.85;;;5.00;99.90;;;;;;4997845;28;20368;-70
2022/12/06 02:22:54;;;;;;;6.80;2.83;;;5.00;99.90;;;;;;4997732;28;20121;-70
2022/12/06 02:25:40;;;;;;;4.72;2.33;;;5.00;99.90;;;;;;4997838;28;20057;-70
2022/12/06 02:28:42;;;;;;;5.53;2.55;;;5.00;99.90;;;;;;4999967;28;20053;-70
2022/12/06 02:31:25;;;;;;;5.07;2.45;;;4.90;99.90;;;;;;4997799;28;20350;-71
2022/12/06 02:33:58;;;;;;;4.10;2.47;;;4.90;99.90;;;;;;4999408;28;20114;-71
2022/12/06 02:36:41;;;;;;;5.32;2.50;;;4.90;99.90;;;;;;4999293;28;20038;-71
2022/12/06 02:39:13;;;;;;;10.18;2.60;;;5.00;99.90;;;;;;4999231;28;20078;-70
2022/12/06 02:41:44;;;;;;;5.38;2.22;;;4.90;99.90;;;;;;4981601;28;20462;-71
2022/12/06 02:44:19;;;;;;;8.40;2.60;;;4.90;99.90;;;;;;4999048;28;20058;-70
2022/12/06 02:46:47;;;;;;;4.85;2.53;;;4.90;99.90;;;;;;4999260;28;20340;-70
2022/12/06 02:49:13;;;;;;;6.72;2.72;;;4.90;99.90;;;;;;4981671;28;20054;-70
2022/12/06 02:51:40;;;;;;;6.43;2.85;;;4.90;99.90;;;;;;4979377;28;20049;-71
2022/12/06 02:54:09;;;;;;;6.25;2.60;;;4.90;99.90;;;;;;4979068;28;20501;-70
2022/12/06 02:56:35;;;;;;;9.20;3.15;;;5.10;99.90;;;;;;4980379;28;20049;-70
2022/12/06 02:59:01;;;;;;;5.70;2.70;;;4.80;99.90;;;;;;4999018;28;20081;-71
2022/12/06 03:01:31;;;;;;;7.75;2.97;;;4.80;99.90;;;;;;4998728;28;20101;-70
2022/12/06 03:04:14;;;;;;;4.88;2.53;;;4.80;99.90;;;;;;4998709;28;20034;-70
2022/12/06 03:06:50;;;;;;;8.65;3.25;;;4.80;99.90;;;;;;4997810;28;20054;-71
2022/12/06 03:09:25;;;;;;;7.72;2.53;;;4.80;99.90;;;;;;4998939;28;20343;-71
2022/12/06 03:12:01;;;;;;;6.78;2.97;;;4.80;99.90;;;;;;4991832;28;20362;-71
2022/12/06 03:14:37;;;;;;;8.77;3.13;;;4.80;99.90;;;;;;4979124;28;20332;-70
2022/12/06 03:17:25;;;;;;;7.22;3.00;;;4.80;99.90;;;;;;4979093;28;20085;-71
2022/12/06 03:19:58;;;;;;;6.00;2.40;;;4.80;99.90;;;;;;4977913;28;20043;-71
2022/12/06 03:22:29;;;;;;;7.60;2.93;;;4.80;99.90;;;;;;4979029;28;20131;-71
2022/12/06 03:24:56;;;;;;;5.65;2.95;;;4.80;99.90;;;;;;4978760;28;20039;-71
2022/12/06 03:27:24;;;;;;;6.93;2.90;;;4.80;99.90;;;;;;4991441;28;20054;-71
2022/12/06 03:29:54;;;;;;;7.57;2.90;;;4.80;99.90;;;;;;4997385;28;20042;-71
2022/12/06 03:32:26;;;;;;;5.82;2.58;;;4.80;99.90;;;;;;4999098;28;20042;-71
2022/12/06 03:34:56;;;;;;;8.70;2.90;;;4.80;99.90;;;;;;4998282;28;20039;-71
2022/12/06 03:37:27;;;;;;;6.95;2.92;;;4.80;99.90;;;;;;4998157;28;20140;-71
2022/12/06 03:40:10;;;;;;;10.30;3.22;;;4.80;99.90;;;;;;4998027;28;20034;-71
2022/12/06 03:42:36;;;;;;;6.32;2.85;;;4.80;99.90;;;;;;5109864;23;20095;-71
2022/12/06 03:45:04;;;;;;;8.48;3.00;;;4.90;99.90;;;;;;5032428;28;20128;-71
2022/12/06 03:47:35;;;;;;;4.53;2.65;;;4.90;99.90;;;;;;5023224;28;20050;-71
2022/12/06 03:50:09;;;;;;;6.68;3.13;;;4.80;99.90;;;;;;5032916;28;20048;-70
2022/12/06 03:52:35;;;;;;;6.85;2.83;;;4.90;99.90;;;;;;5017530;28;20121;-71
2022/12/06 03:55:01;;;;;;;8.05;3.40;;;4.90;99.90;;;;;;5017505;28;20102;-71
2022/12/06 03:57:26;;;;;;;6.00;3.38;;;5.10;99.90;;;;;;5017475;28;20057;-70
2022/12/06 03:59:52;;;;;;;9.32;3.15;;;4.90;99.90;;;;;;5017671;28;20046;-71
2022/12/06 04:02:17;;;;;;;6.82;3.03;;;4.90;99.90;;;;;;5028220;28;20057;-71
2022/12/06 04:04:43;;;;;;;5.30;2.95;;;4.90;99.90;;;;;;5036977;28;20041;-71
2022/12/06 04:07:10;;;;;;;8.70;3.65;;;4.90;99.90;;;;;;5036785;28;20449;-70
2022/12/06 04:09:51;;;;;;;7.88;3.47;;;4.90;99.90;;;;;;5035840;28;20114;-71
2022/12/06 04:15:02;;;;;;;10.43;4.13;;;4.70;99.90;;;;;;5036754;28;20050;-71
2022/12/06 04:20:11;;;;;;;7.35;3.60;;;4.70;99.90;;;;;;5036707;28;20422;-71
2022/12/06 04:25:21;;;;;;;10.95;3.40;;;4.80;99.90;;;;;;5036496;28;20111;-72
2022/12/06 04:38:44;;;;;;;11.32;3.75;;;4.60;99.90;;;;;;5036370;28;20412;-71
2022/12/06 04:41:11;;;;;;;8.07;3.63;;;4.40;99.90;;;;;;5036358;28;20037;-72
2022/12/06 04:43:42;;;;;;;10.68;3.75;;;4.40;99.90;;;;;;5034603;28;20145;-71
2022/12/06 04:46:13;;;;;;;9.18;3.97;;;4.30;99.90;;;;;;5035832;28;20038;-71
2022/12/06 04:48:39;;;;;;;10.40;4.10;;;4.30;99.90;;;;;;5036116;28;20037;-71
2022/12/06 04:51:05;;;;;;;5.95;3.50;;;4.80;99.90;;;;;;5035914;28;20492;-71
2022/12/06 04:53:31;;;;;;;8.30;4.13;;;4.20;99.90;;;;;;5036012;28;20139;-72
2022/12/06 04:55:56;;;;;;;7.43;4.18;;;4.20;99.90;;;;;;5036287;28;20136;-71
2022/12/06 04:58:27;;;;;;;6.70;3.53;;;4.10;99.90;;;;;;5036521;28;20049;-71
2022/12/06 05:00:54;;;;;;;15.02;4.40;;;4.10;99.90;;;;;;5034914;28;20048;-71
2022/12/06 05:03:20;;;;;;;8.20;4.07;;;4.10;99.90;;;;;;5035944;28;20041;-70
2022/12/06 05:05:45;;;;;;;8.63;3.78;;;4.10;99.90;;;;;;5018085;28;20073;-71
2022/12/06 05:08:12;;;;;;;8.77;4.65;;;4.00;99.90;;;;;;5035650;28;20076;-71
2022/12/06 05:10:37;;;;;;;12.32;3.88;;;4.00;99.90;;;;;;5035782;28;20473;-71
2022/12/06 05:13:04;;;;;;;9.02;3.35;;;3.90;99.90;;;;;;5035057;28;20616;-72
2022/12/06 05:15:29;;;;;;;5.63;3.38;;;3.90;99.90;;;;;;5035754;28;20041;-71
2022/12/06 05:17:55;;;;;;;9.57;3.80;;;3.90;99.90;;;;;;5035430;28;20037;-71
2022/12/06 05:20:21;;;;;;;6.20;2.85;;;3.80;99.90;;;;;;5035789;28;20116;-72
2022/12/06 05:22:47;;;;;;;11.63;3.70;;;3.70;99.90;;;;;;5035755;28;20081;-70
2022/12/06 05:25:12;;;;;;;7.75;3.85;;;3.60;99.90;;;;;;5035431;28;20112;-72
2022/12/06 05:27:38;;;;;;;6.75;3.50;;;3.60;99.90;;;;;;5035538;28;20479;-71
2022/12/06 05:30:04;;;;;;;5.70;3.10;;;3.50;99.90;;;;;;5035161;28;20142;-71
2022/12/06 05:32:30;;;;;;;8.55;3.55;;;3.50;99.90;;;;;;5035208;28;20045;-72
2022/12/06 05:34:56;;;;;;;5.53;3.45;;;3.40;99.90;;;;;;5036054;28;20061;-71
2022/12/06 05:37:21;;;;;;;6.88;3.38;;;3.30;99.90;;;;;;5035356;28;20116;-72
2022/12/06 05:39:47;;;;;;;8.02;3.22;;;3.70;99.90;;;;;;5035410;28;20033;-71
2022/12/06 05:42:13;;;;;;;6.35;3.00;;;3.10;99.90;;;;;;5034452;28;20068;-71
2022/12/06 05:44:38;;;;;;;6.00;3.15;;;3.10;99.90;;;;;;5033857;28;20095;-71
2022/12/06 05:47:04;;;;;;;6.05;3.38;;;3.00;99.90;;;;;;5035312;28;20045;-71
2022/12/06 05:49:29;;;;;;;6.80;3.75;;;3.00;99.90;;;;;;5035132;28;20341;-71
2022/12/06 05:51:55;;;;;;;9.80;4.65;;;2.90;99.90;;;;;;5034315;28;20041;-72
2022/12/06 05:54:20;;;;;;;8.93;4.20;;;3.00;99.90;;;;;;5034164;28;20045;-71
2022/12/06 05:56:48;;;;;;;9.77;4.68;;;3.00;99.90;;;;;;5035143;28;20041;-70
2022/12/06 05:59:14;;;;;;;14.40;5.05;;;3.00;99.90;;;;;;5034814;28;20044;-69
2022/12/06 06:01:40;;;;;;;10.15;4.95;;;3.00;99.90;;;;;;5034558;28;20037;-72
2022/12/06 06:04:05;;;;;;;8.52;5.05;;;3.00;99.90;;;;;;5035186;28;20045;-72
2022/12/06 06:06:31;;;;;;;7.70;4.32;;;3.10;99.90;;;;;;5034279;28;20457;-71
2022/12/06 06:08:56;;;;;;;9.00;4.82;;;3.20;99.90;;;;;;5035188;28;20041;-72
2022/12/06 06:11:22;;;;;;;9.52;5.20;;;3.20;99.90;;;;;;5035046;28;20056;-71
2022/12/06 06:13:47;;;;;;;9.98;4.32;;;3.20;99.90;;;;;;5034761;28;20053;-71
2022/12/06 06:16:13;;;;;;;9.15;4.88;;;3.20;99.90;;;;;;5034702;28;20045;-71
2022/12/06 06:18:39;;;;;;;11.70;5.47;;;3.20;99.90;;;;;;5034169;28;20115;-71
2022/12/06 06:21:04;;;;;;;10.15;4.55;;;3.20;99.90;;;;;;5034583;28;20038;-71
2022/12/06 06:23:30;;;;;;;11.80;5.10;;;3.10;99.90;;;;;;5034496;28;20030;-71
2022/12/06 06:25:56;;;;;;;10.15;5.10;;;3.10;99.90;;;;;;5034252;28;20132;-71
2022/12/06 06:28:22;;;;;;;12.45;5.30;;;3.00;99.90;;;;;;5034775;28;20065;-71
2022/12/06 06:30:48;;;;;;;13.05;4.97;;;3.00;99.90;;;;;;5034728;28;20037;-71
2022/12/06 06:33:14;;;;;;;9.80;4.43;;;2.90;99.90;;;;;;5034901;28;20442;-71
2022/12/06 06:35:40;;;;;;;8.90;4.55;;;2.90;99.90;;;;;;5034954;28;20068;-71
2022/12/06 06:38:07;;;;;;;8.20;4.50;;;2.90;99.90;;;;;;5033365;28;20045;-71
2022/12/06 06:40:33;;;;;;;11.13;5.10;;;2.90;99.90;;;;;;5034889;28;20111;-72
2022/12/06 06:43:16;;;;;;;9.45;4.80;;;2.90;99.90;;;;;;5034515;28;20061;-71
2022/12/06 06:45:56;;;;;;;10.65;5.22;;;3.00;99.90;;;;;;5033925;28;20045;-72
2022/12/06 06:48:23;;;;;;;9.30;5.30;;;3.00;99.90;;;;;;5034621;28;20063;-71
2022/12/06 06:50:49;;;;;;;11.00;5.35;;;3.00;99.90;;;;;;5034386;28;20037;-72
2022/12/06 06:53:15;;;;;;;12.18;5.70;;;3.10;99.90;;;;;;5034688;28;20365;-71
2022/12/06 06:55:43;;;;;;;10.38;5.80;;;3.10;99.90;;;;;;5034478;28;20041;-71
2022/12/06 06:58:09;;;;;;;14.73;6.00;;;3.30;99.90;;;;;;5034265;28;20103;-71
2022/12/06 07:00:34;;;;;;;10.43;6.25;;;3.10;99.90;;;;;;5033370;28;20421;-71
2022/12/06 07:03:00;;;;;;;14.90;6.53;;;3.10;99.90;;;;;;5034534;28;20088;-71
2022/12/06 07:05:26;;;;;;;14.13;8.27;;;3.20;99.90;;;;;;5034184;28;20045;-72
2022/12/06 07:07:52;;;;;;;12.02;6.82;;;3.10;99.90;;;;;;5034269;28;20044;-71
2022/12/06 07:10:18;;;;;;;12.98;6.85;;;3.20;99.90;;;;;;5033179;28;20077;-71
2022/12/06 07:12:43;;;;;;;10.88;6.28;;;3.10;99.90;;;;;;5034401;28;20107;-71
2022/12/06 07:15:10;;;;;;;12.23;5.65;;;3.00;99.90;;;;;;5034370;28;20056;-71
2022/12/06 07:17:36;;;;;;;11.88;5.70;;;3.00;99.90;;;;;;5035928;28;20056;-71
2022/12/06 07:20:01;;;;;;;9.35;5.97;;;2.90;99.90;;;;;;5037768;28;20049;-71
2022/12/06 07:22:28;;;;;;;18.83;6.78;;;2.80;99.90;;;;;;5038076;28;20080;-71
2022/12/06 07:24:54;;;;;;;9.43;6.10;;;2.70;99.90;;;;;;5037746;28;20224;-72
2022/12/06 07:27:19;;;;;;;10.82;6.43;;;2.60;99.90;;;;;;5037692;28;20132;-71
2022/12/06 07:29:45;;;;;;;11.98;6.40;;;2.50;99.90;;;;;;5037731;28;20449;-72
2022/12/06 07:32:11;;;;;;;10.60;6.05;;;2.50;99.90;;;;;;5037772;28;20044;-71
2022/12/06 07:34:36;;;;;;;10.48;6.57;;;2.30;99.90;;;;;;5037438;28;20041;-71
2022/12/06 07:37:05;;;;;;;12.88;6.75;;;2.30;99.90;;;;;;5037202;28;20167;-71
2022/12/06 07:39:31;;;;;;;10.52;5.63;;;2.20;99.90;;;;;;5037174;28;20433;-72
2022/12/06 07:47:36;;;;;;;11.60;6.60;;;2.00;99.90;;;;;;5037662;28;20092;-71
2022/12/06 07:50:03;;;;;;;9.55;5.57;;;2.00;99.90;;;;;;5037151;28;20413;-72
2022/12/06 07:52:33;;;;;;;11.63;6.30;;;1.90;99.90;;;;;;5037112;28;20072;-72
2022/12/06 07:54:59;;;;;;;10.63;6.70;;;1.90;99.90;;;;;;5037321;28;20045;-73
2022/12/06 07:57:25;;;;;;;12.35;6.07;;;1.90;99.90;;;;;;5037410;28;20037;-71
2022/12/06 07:59:50;;;;;;;14.45;6.88;;;1.80;99.90;;;;;;5037152;28;20168;-71
2022/12/06 08:02:19;;;;;;;14.38;7.05;;;1.80;99.90;;;;;;5037340;28;20461;-72
2022/12/06 08:04:45;;;;;;;12.65;6.50;;;1.70;99.90;;;;;;5036695;28;20118;-71
2022/12/06 08:07:11;;;;;;;10.43;6.20;;;1.80;99.90;;;;;;5037091;28;20138;-71
2022/12/06 08:09:36;;;;;;;10.40;6.00;;;1.70;99.90;;;;;;5036251;28;20053;-72
2022/12/06 08:12:02;;;;;;;12.32;7.90;;;1.70;99.90;;;;;;5036973;28;20334;-71
2022/12/06 08:14:28;;;;;;;14.10;6.50;;;1.60;99.90;;;;;;5036644;28;20084;-71
2022/12/06 08:16:53;;;;;;;14.85;8.48;;;1.60;99.90;;;;;;5036995;28;20048;-71
2022/12/06 08:19:19;;;;;;;12.82;6.60;;;1.60;99.90;;;;;;5036700;28;20037;-71
2022/12/06 08:21:45;;;;;;;12.05;7.57;;;1.60;99.90;;;;;;5036461;28;20037;-72
2022/12/06 08:24:11;;;;;;;17.55;8.40;;;1.60;99.90;;;;;;5035734;28;20123;-71
2022/12/06 08:26:36;;;;;;;15.63;8.27;;;1.70;99.90;;;;;;5036663;28;20052;-71
2022/12/06 08:29:03;;;;;;;16.00;9.98;;;1.80;99.90;;;;;;5036147;28;20045;-71
2022/12/06 08:31:35;;;;;;;18.48;10.50;;;1.90;99.90;;;;;;5036598;28;20037;-72
2022/12/06 08:34:02;;;;;;;19.75;8.93;;;2.00;99.90;;;;;;5035591;28;20425;-71
2022/12/06 08:36:28;;;;;;;15.82;10.30;;;2.10;99.90;;;;;;5036211;28;20030;-71
2022/12/06 08:38:54;;;;;;;17.25;10.30;;;2.10;99.90;;;;;;5036442;28;20046;-72
2022/12/06 08:42:09;;;;;;;17.60;11.07;;;2.20;99.90;;;;;;5036264;28;20042;-71
2022/12/06 08:44:14;;;;;;;16.15;11.02;;;2.30;99.90;;;;;;5020933;28;20085;-71
2022/12/06 08:46:40;;;;;;;16.88;11.18;;;2.50;99.90;;;;;;5036139;28;20068;-71
2022/12/06 08:49:05;;;;;;;17.52;9.73;;;2.50;99.90;;;;;;5035861;28;20041;-72
2022/12/06 08:51:33;;;;;;;17.17;10.77;;;2.70;99.90;;;;;;5034812;28;20480;-71
2022/12/06 08:53:59;;;;;;;17.67;11.18;;;2.80;99.90;;;;;;5033522;28;20120;-71
2022/12/06 08:56:25;;;;;;;17.88;10.38;;;2.90;99.90;;;;;;5034108;28;20096;-71
2022/12/06 08:58:52;;;;;;;20.88;11.65;;;3.00;99.90;;;;;;5035967;28;20091;-72
2022/12/06 09:01:27;;;;;;;17.17;9.65;;;3.10;99.90;;;;;;5035876;28;20047;-72
2022/12/06 09:03:53;;;;;;;17.63;10.55;;;3.20;99.90;;;;;;5035926;28;20037;-71
2022/12/06 09:06:20;;;;;;;15.75;9.32;;;3.30;99.90;;;;;;5035904;28;20048;-71
2022/12/06 09:08:46;;;;;;;14.13;8.23;;;3.40;99.90;;;;;;5035901;28;20385;-72
2022/12/06 09:11:12;;;;;;;15.18;8.88;;;3.50;99.90;;;;;;5035265;28;20522;-71
2022/12/06 09:13:38;;;;;;;14.48;8.57;;;3.60;99.90;;;;;;5034693;28;20081;-71
2022/12/06 09:16:10;;;;;;;17.40;7.82;;;3.70;99.90;;;;;;5035563;28;20088;-70
2022/12/06 09:18:36;;;;;;;16.60;7.13;;;3.80;99.90;;;;;;5035675;28;20045;-71
2022/12/06 09:21:13;;;;;;;13.85;7.85;;;3.80;99.90;;;;;;5035052;28;20478;-72
2022/12/06 09:23:39;;;;;;;9.45;6.40;;;3.80;99.90;;;;;;5035185;28;20089;-73
2022/12/06 09:26:06;;;;;;;16.63;7.38;;;3.80;99.90;;;;;;5027233;28;20069;-71
2022/12/06 09:28:34;;;;;;;14.82;8.32;;;3.80;99.90;;;;;;5035456;28;20076;-71
2022/12/06 09:31:01;;;;;;;12.38;7.10;;;3.80;99.90;;;;;;5035658;28;20049;-71
2022/12/06 09:33:27;;;;;;;15.50;7.28;;;3.90;99.90;;;;;;5035774;28;20033;-71
2022/12/06 09:35:53;;;;;;;11.32;6.80;;;4.00;99.90;;;;;;5035400;28;20037;-71
2022/12/06 09:38:21;;;;;;;14.15;6.57;;;4.00;99.90;;;;;;5035135;28;20103;-71
2022/12/06 09:40:55;;;;;;;9.30;5.90;;;4.00;99.90;;;;;;5033082;28;20052;-71
2022/12/06 09:43:50;;;;;;;10.98;6.43;;;3.90;99.90;;;;;;5035008;28;20118;-71
2022/12/06 09:46:28;;;;;;;13.27;6.18;;;3.90;99.90;;;;;;5035307;28;20041;-72
2022/12/06 09:49:12;;;;;;;11.35;5.60;;;3.80;99.90;;;;;;5035214;28;20132;-72
2022/12/06 09:51:57;;;;;;;10.95;6.05;;;3.70;99.90;;;;;;5035295;28;20072;-71
2022/12/06 09:54:25;;;;;;;11.98;6.60;;;3.70;99.90;;;;;;5033935;28;20045;-72
2022/12/06 09:57:00;;;;;;;13.82;6.65;;;3.70;99.90;;;;;;5034864;28;20045;-72
2022/12/06 09:59:47;;;;;;;12.10;6.35;;;3.70;99.90;;;;;;5017367;28;20053;-72
2022/12/06 10:02:34;;;;;;;15.18;6.00;;;3.70;99.90;;;;;;5034891;28;20353;-72
2022/12/06 10:05:18;;;;;;;11.52;6.20;;;3.70;99.90;;;;;;5033840;28;20462;-72
2022/12/06 10:08:08;;;;;;;10.65;6.35;;;3.80;99.90;;;;;;5034929;28;20400;-72
2022/12/06 10:11:06;;;;;;;12.85;6.80;;;3.80;99.90;;;;;;5034626;28;20049;-71
2022/12/06 10:13:57;;;;;;;12.40;5.93;;;3.90;99.90;;;;;;5034731;28;20128;-73
2022/12/06 10:16:37;;;;;;;9.57;5.90;;;4.10;99.90;;;;;;5034698;28;20126;-72
2022/12/06 10:19:10;;;;;;;9.77;5.00;;;4.20;99.90;;;;;;5034893;28;20073;-72
2022/12/06 10:22:01;;;;;;;12.18;5.63;;;4.20;99.90;;;;;;5034756;28;20121;-71
2022/12/06 10:24:46;;;;;;;9.90;5.00;;;4.30;99.90;;;;;;5034617;28;20353;-71
2022/12/06 10:27:35;;;;;;;11.38;5.70;;;4.30;99.90;;;;;;5034776;28;20045;-72
2022/12/06 10:30:07;;;;;;;11.40;5.55;;;4.30;99.90;;;;;;5005611;28;20054;-72
2022/12/06 10:33:19;;;;;;;11.65;4.95;;;4.30;99.90;;;;;;5033908;28;20073;-72
2022/12/06 10:35:47;;;;;;;9.60;5.05;;;4.20;99.90;;;;;;4973711;28;20054;-72
2022/12/06 10:38:37;;;;;;;11.05;5.47;;;4.20;99.90;;;;;;4957998;28;20121;-72
2022/12/06 10:41:25;;;;;;;9.10;5.03;;;4.20;99.90;;;;;;5001766;28;20096;-72
2022/12/06 10:44:03;;;;;;;8.60;5.35;;;4.20;99.90;;;;;;5015061;28;20054;-71
2022/12/06 10:50:13;;;;;;;10.43;4.80;;;4.30;99.90;;;;;;5035317;28;20116;-72
2022/12/06 10:52:49;;;;;;;8.82;4.75;;;4.30;99.90;;;;;;5036774;28;20129;-71
2022/12/06 10:55:57;;;;;;;7.85;4.57;;;4.40;99.90;;;;;;5038172;28;20045;-72
2022/12/06 10:58:37;;;;;;;8.02;4.75;;;4.40;99.90;;;;;;4996637;28;20467;-72
2022/12/06 11:01:16;;;;;;;10.32;5.35;;;4.40;99.90;;;;;;5035786;28;20484;-72
2022/12/06 11:04:04;;;;;;;8.15;4.82;;;4.40;99.90;;;;;;5037997;28;20037;-72
2022/12/06 11:06:35;;;;;;;10.02;4.80;;;4.70;99.90;;;;;;5038196;28;20045;-72
2022/12/06 11:09:28;;;;;;;7.18;4.10;;;4.50;99.90;;;;;;5038012;28;20102;-72
2022/12/06 11:11:53;;;;;;;7.68;4.50;;;4.60;99.90;;;;;;5037968;28;20053;-72
2022/12/06 11:14:31;;;;;;;8.27;4.45;;;4.70;99.90;;;;;;5037889;28;20427;-71
2022/12/06 11:17:15;;;;;;;6.13;3.78;;;4.80;99.90;;;;;;5048897;28;20053;-71
2022/12/06 11:19:44;;;;;;;;;;;5.00;99.90;;;;;;5038615;28;20120;-71
2022/12/06 11:22:37;;;;;;;7.60;4.25;;;5.20;99.90;;;;;;5038035;28;19974;-71
2022/12/06 11:25:30;;;;;;;5.82;3.40;;;5.10;99.90;;;;;;5036515;28;20125;-70
2022/12/06 11:28:23;;;;;;;7.47;3.70;;;5.10;99.90;;;;;;5037873;28;20045;-71
2022/12/06 11:30:51;;;;;;;7.43;3.13;;;5.30;99.90;;;;;;5032868;28;20053;-71
2022/12/06 11:33:24;;;;;;;8.93;3.40;;;5.20;99.90;;;;;;5038181;28;20034;-71
2022/12/06 11:35:50;;;;;;;10.27;4.03;;;5.30;99.90;;;;;;5037567;28;20117;-70
2022/12/06 11:38:16;;;;;;;6.88;3.83;;;5.30;99.90;;;;;;5037876;28;20401;-71
2022/12/06 11:40:45;;;;;;;9.43;4.15;;;5.30;99.90;;;;;;5036585;28;20049;-71
2022/12/06 11:43:25;;;;;;;5.88;4.00;;;5.30;99.90;;;;;;5037170;28;20049;-71
2022/12/06 11:45:52;;;;;;;7.90;4.13;;;5.30;99.90;;;;;;5037547;28;20408;-70
2022/12/06 11:48:21;;;;;;;6.80;4.05;;;5.30;99.90;;;;;;5037021;28;20458;-71
2022/12/06 11:50:48;;;;;;;7.85;4.57;;;5.40;99.90;;;;;;5037267;28;20038;-71
2022/12/06 11:53:37;;;;;;;8.18;4.05;;;5.50;99.90;;;;;;5037320;28;20045;-71
2022/12/06 11:56:13;;;;;;;8.52;4.40;;;5.70;99.90;;;;;;5037236;28;20362;-71
2022/12/06 11:58:59;;;;;;;6.13;3.88;;;5.80;99.90;;;;;;5019541;28;20052;-70
2022/12/06 12:01:46;;;;;;;6.43;3.50;;;5.90;99.90;;;;;;5036948;28;20033;-71
2022/12/06 12:04:38;;;;;;;7.82;4.05;;;6.00;99.90;;;;;;5034928;28;20038;-71
2022/12/06 12:07:12;;;;;;;6.68;4.20;;;6.10;99.90;;;;;;5037118;28;20037;-71
2022/12/06 12:10:00;;;;;;;6.80;3.28;;;6.20;99.90;;;;;;5037025;28;20117;-71
2022/12/06 12:15:27;;;;;;;7.50;2.92;;;5.90;99.90;;;;;;5036551;28;20389;-71
2022/12/06 12:17:55;;;;;;;6.85;2.85;;;6.00;99.90;;;;;;5035769;28;20045;-71
2022/12/06 12:20:25;;;;;;;5.95;2.95;;;5.80;99.90;;;;;;5037010;28;20045;-70
2022/12/06 12:23:22;;;;;;;8.35;2.97;;;5.70;99.90;;;;;;5036744;28;20045;-71
2022/12/06 12:25:58;;;;;;;8.02;3.20;;;5.70;99.90;;;;;;5036658;28;20167;-71
2022/12/06 12:28:32;;;;;;;8.60;3.25;;;5.60;99.90;;;;;;5036715;28;20040;-71
2022/12/06 12:31:20;;;;;;;6.35;3.40;;;5.60;99.90;;;;;;5036214;28;20457;-71
2022/12/06 12:33:47;;;;;;;6.68;3.40;;;5.60;99.90;;;;;;5036487;28;20049;-71
2022/12/06 12:36:24;;;;;;;6.32;3.30;;;5.60;99.90;;;;;;5036466;28;20113;-71
2022/12/06 12:39:01;;;;;;;8.40;3.50;;;5.60;99.90;;;;;;5034873;28;20057;-71
2022/12/06 12:41:43;;;;;;;5.32;3.05;;;5.60;99.90;;;;;;5035272;28;20045;-70
2022/12/06 12:44:18;;;;;;;8.02;3.72;;;5.60;99.90;;;;;;5035679;28;20068;-70
2022/12/06 12:46:49;;;;;;;9.73;3.53;;;5.60;99.90;;;;;;5036232;28;20041;-70
2022/12/06 12:49:37;;;;;;;6.30;4.20;;;5.70;99.90;;;;;;5036424;28;20045;-70
2022/12/06 12:52:41;;;;;;;6.38;3.95;;;5.80;99.90;;;;;;5035068;28;20052;-70
2022/12/06 12:55:22;;;;;;;9.40;3.97;;;5.90;99.90;;;;;;5035720;28;20112;-71
2022/12/06 12:57:56;;;;;;;7.50;3.33;;;6.00;99.90;;;;;;5035943;28;20366;-71
2022/12/06 13:00:37;;;;;;;9.55;3.90;;;6.00;99.90;;;;;;5036073;28;20120;-70
2022/12/06 13:03:11;;;;;;;6.55;3.75;;;6.10;99.90;;;;;;5034597;28;20114;-70
2022/12/06 13:05:37;;;;;;;;;;;6.10;99.90;;;;;;5036339;28;20102;-71
2022/12/06 13:08:17;;;;;;;7.63;3.58;;;6.20;99.90;;;;;;5035873;28;20317;-70
2022/12/06 13:10:49;;;;;;;7.63;3.55;;;6.20;99.90;;;;;;5035822;28;20129;-72
2022/12/06 13:13:29;;;;;;;4.78;3.15;;;6.30;99.90;;;;;;5035543;28;20041;-71
2022/12/06 13:15:57;;;;;;;11.98;4.00;;;6.40;99.90;;;;;;5035832;28;20037;-72
2022/12/06 13:18:43;;;;;;;5.95;3.80;;;6.40;99.90;;;;;;5035743;28;20033;-71
2022/12/06 13:21:26;;;;;;;10.80;5.68;;;6.50;99.90;;;;;;5035642;28;20099;-71
2022/12/06 13:23:58;;;;;;;9.68;4.93;;;6.50;99.90;;;;;;5034960;28;20478;-72
2022/12/06 13:26:43;;;;;;;8.07;3.70;;;6.50;99.90;;;;;;5035576;28;20038;-71
2022/12/06 13:29:33;;;;;;;7.35;3.25;;;6.60;99.90;;;;;;5034396;28;20065;-71
2022/12/06 13:32:10;;;;;;;7.40;3.78;;;6.80;99.90;;;;;;5035443;28;20085;-71
2022/12/06 13:34:39;;;;;;;6.25;3.30;;;6.70;99.90;;;;;;5035420;28;20049;-71
2022/12/06 13:37:42;;;;;;;5.97;3.63;;;6.70;99.90;;;;;;5035744;28;20085;-71
2022/12/06 13:40:26;;;;;;;5.75;3.08;;;6.70;99.90;;;;;;5034177;28;20330;-72
2022/12/06 13:42:52;;;;;;;9.20;3.50;;;7.00;99.90;;;;;;5033713;28;20058;-71
2022/12/06 13:45:39;;;;;;;7.40;3.53;;;7.00;99.90;;;;;;5035375;28;20124;-72
2022/12/06 13:48:25;;;;;;;8.30;2.95;;;6.70;99.90;;;;;;5035265;28;20345;-71